createdAt,value
2018-12-07T00:00:11.686Z,90.31
2018-12-07T00:01:11.627Z,90.38
2018-12-07T00:02:11.724Z,90.37
2018-12-07T00:03:11.646Z,90.43
2018-12-07T00:04:11.713Z,90.43
2018-12-07T00:05:11.664Z,90.43
2018-12-07T00:06:11.661Z,90.33
2018-12-07T00:07:11.718Z,90.26
2018-12-07T00:08:11.862Z,90.3
2018-12-07T00:09:11.735Z,90.36
2018-12-07T00:10:11.667Z,90.37
2018-12-07T00:11:11.682Z,90.38
2018-12-07T00:12:11.683Z,90.46
2018-12-07T00:13:11.722Z,90.53
2018-12-07T00:14:13.485Z,90.53
2018-12-07T00:15:11.622Z,90.38
2018-12-07T00:16:11.773Z,90.37
2018-12-07T00:17:11.907Z,90.36
2018-12-07T00:18:11.900Z,90.43
2018-12-07T00:19:11.694Z,90.52
2018-12-07T00:20:11.710Z,90.51
2018-12-07T00:21:11.733Z,90.5
2018-12-07T00:22:11.791Z,90.43
2018-12-07T00:23:11.751Z,90.52
2018-12-07T00:24:11.776Z,90.35
2018-12-07T00:25:11.811Z,90.49
2018-12-07T00:26:11.819Z,90.54
2018-12-07T00:27:11.774Z,90.34
2018-12-07T00:28:11.657Z,90.32
2018-12-07T00:29:11.772Z,90.35
2018-12-07T00:30:11.685Z,90.45
2018-12-07T00:31:11.816Z,90.46
2018-12-07T00:32:11.659Z,90.67
2018-12-07T00:33:11.753Z,90.78
2018-12-07T00:34:11.794Z,90.79
2018-12-07T00:35:11.868Z,90.77
2018-12-07T00:36:11.665Z,90.62
2018-12-07T00:37:12.012Z,90.83
2018-12-07T00:38:11.674Z,90.73
2018-12-07T00:39:11.636Z,90.73
2018-12-07T00:40:11.810Z,90.71
2018-12-07T00:41:11.742Z,90.66
2018-12-07T00:42:12.091Z,90.93
2018-12-07T00:43:11.766Z,90.83
2018-12-07T00:44:11.822Z,91.01
2018-12-07T00:45:11.746Z,91.08
2018-12-07T00:46:11.646Z,91.03
2018-12-07T00:47:11.897Z,90.93
2018-12-07T00:48:11.844Z,91.16
2018-12-07T00:49:11.650Z,91.23
2018-12-07T00:50:11.659Z,91.23
2018-12-07T00:51:11.619Z,91.18
2018-12-07T00:52:11.718Z,91.28
2018-12-07T00:53:11.593Z,91.31
2018-12-07T00:54:11.970Z,91.34
2018-12-07T00:55:11.790Z,91.46
2018-12-07T00:56:11.783Z,91.46
2018-12-07T00:57:11.793Z,91.47
2018-12-07T00:58:12.036Z,91.59
2018-12-07T00:59:11.819Z,91.51
2018-12-07T01:00:11.661Z,91.66
2018-12-07T01:01:11.584Z,91.61
2018-12-07T01:02:11.763Z,91.47
2018-12-07T01:03:11.644Z,91.46
2018-12-07T01:04:11.660Z,91.38
2018-12-07T01:05:11.587Z,91.52
2018-12-07T01:06:11.807Z,91.55
2018-12-07T01:07:11.611Z,91.5
2018-12-07T01:08:11.936Z,91.6
2018-12-07T01:09:12.010Z,91.54
2018-12-07T01:10:11.757Z,91.57
2018-12-07T01:11:11.798Z,91.47
2018-12-07T01:12:11.834Z,91.49
2018-12-07T01:13:11.637Z,91.45
2018-12-07T01:14:11.766Z,91.45
2018-12-07T01:15:11.951Z,91.37
2018-12-07T01:16:11.613Z,91.31
2018-12-07T01:17:11.627Z,91.37
2018-12-07T01:18:11.665Z,91.38
2018-12-07T01:19:11.791Z,91.48
2018-12-07T01:20:11.707Z,91.45
2018-12-07T01:21:11.764Z,91.53
2018-12-07T01:22:11.773Z,91.36
2018-12-07T01:23:11.837Z,91.49
2018-12-07T01:24:11.799Z,91.53
2018-12-07T01:25:11.776Z,91.74
2018-12-07T01:26:11.700Z,91.95
2018-12-07T01:27:11.724Z,91.92
2018-12-07T01:28:11.728Z,92.07
2018-12-07T01:29:11.634Z,91.93
2018-12-07T01:30:11.607Z,92.1
2018-12-07T01:31:11.719Z,92.11
2018-12-07T01:32:11.672Z,92.12
2018-12-07T01:33:11.610Z,92.09
2018-12-07T01:34:11.530Z,92.04
2018-12-07T01:35:11.586Z,91.93
2018-12-07T01:36:11.580Z,91.86
2018-12-07T01:37:11.619Z,91.87
2018-12-07T01:38:11.699Z,91.72
2018-12-07T01:39:11.571Z,91.71
2018-12-07T01:40:11.559Z,91.6
2018-12-07T01:41:11.526Z,91.56
2018-12-07T01:42:11.570Z,91.54
2018-12-07T01:43:11.596Z,91.58
2018-12-07T01:44:11.766Z,91.52
2018-12-07T01:45:11.602Z,91.53
2018-12-07T01:46:11.544Z,91.56
2018-12-07T01:47:11.555Z,91.5
2018-12-07T01:48:11.574Z,91.43
2018-12-07T01:49:11.544Z,91.57
2018-12-07T01:50:11.665Z,91.52
2018-12-07T01:51:11.547Z,91.55
2018-12-07T01:52:11.559Z,91.49
2018-12-07T01:53:12.047Z,91.42
2018-12-07T01:54:11.693Z,91.58
2018-12-07T01:55:11.532Z,91.48
2018-12-07T01:56:11.720Z,91.48
2018-12-07T01:57:11.858Z,91.62
2018-12-07T01:58:11.565Z,91.63
2018-12-07T01:59:11.637Z,91.68
2018-12-07T02:00:11.593Z,91.75
2018-12-07T02:01:11.756Z,91.79
2018-12-07T02:02:11.645Z,91.88
2018-12-07T02:03:11.540Z,91.78
2018-12-07T02:04:11.501Z,92.04
2018-12-07T02:05:11.680Z,91.94
2018-12-07T02:06:11.603Z,92.06
2018-12-07T02:07:11.560Z,92.18
2018-12-07T02:08:11.679Z,92.13
2018-12-07T02:09:11.583Z,92.13
2018-12-07T02:10:11.608Z,92.08
2018-12-07T02:11:11.499Z,92.16
2018-12-07T02:12:11.492Z,92.16
2018-12-07T02:13:11.510Z,92
2018-12-07T02:14:11.852Z,92.14
2018-12-07T02:15:11.609Z,92.25
2018-12-07T02:16:11.576Z,92.3
2018-12-07T02:17:11.517Z,92.3
2018-12-07T02:18:11.626Z,92.27
2018-12-07T02:19:11.516Z,92.37
2018-12-07T02:20:11.577Z,92.41
2018-12-07T02:21:11.563Z,92.29
2018-12-07T02:22:11.690Z,92.33
2018-12-07T02:23:11.706Z,92.25
2018-12-07T02:24:11.448Z,92.27
2018-12-07T02:25:11.885Z,92.08
2018-12-07T02:26:11.516Z,92.14
2018-12-07T02:27:11.691Z,92.15
2018-12-07T02:28:11.553Z,92.37
2018-12-07T02:29:11.450Z,92.27
2018-12-07T02:30:11.733Z,92.26
2018-12-07T02:31:11.510Z,92.38
2018-12-07T02:32:11.558Z,92.36
2018-12-07T02:33:11.510Z,92.34
2018-12-07T02:34:11.766Z,92.18
2018-12-07T02:35:11.470Z,92.18
2018-12-07T02:36:11.484Z,92.24
2018-12-07T02:37:11.639Z,92.18
2018-12-07T02:38:11.828Z,92.34
2018-12-07T02:39:11.654Z,92.32
2018-12-07T02:40:11.640Z,92.37
2018-12-07T02:41:11.685Z,92.39
2018-12-07T02:42:11.488Z,92.4
2018-12-07T02:43:11.494Z,92.28
2018-12-07T02:44:11.671Z,92.32
2018-12-07T02:45:11.472Z,92.25
2018-12-07T02:46:11.522Z,92.11
2018-12-07T02:47:11.535Z,92.27
2018-12-07T02:48:11.846Z,92.33
2018-12-07T02:49:11.492Z,92.25
2018-12-07T02:50:11.449Z,92.24
2018-12-07T02:51:11.624Z,92.17
2018-12-07T02:52:11.692Z,92.19
2018-12-07T02:53:11.819Z,92.24
2018-12-07T02:54:12.103Z,92.25
2018-12-07T02:55:11.462Z,92.01
2018-12-07T02:56:11.455Z,92.25
2018-12-07T02:57:11.856Z,92.18
2018-12-07T02:58:11.472Z,92.18
2018-12-07T02:59:11.554Z,92.12
2018-12-07T03:00:11.426Z,92.1
2018-12-07T03:01:11.534Z,92.02
2018-12-07T03:02:11.860Z,92.03
2018-12-07T03:03:11.530Z,91.97
2018-12-07T03:04:11.538Z,91.82
2018-12-07T03:05:11.430Z,91.88
2018-12-07T03:06:11.468Z,91.87
2018-12-07T03:07:11.530Z,91.87
2018-12-07T03:08:11.709Z,91.96
2018-12-07T03:09:11.502Z,92.05
2018-12-07T03:10:11.703Z,91.82
2018-12-07T03:11:11.440Z,91.81
2018-12-07T03:12:11.488Z,91.87
2018-12-07T03:13:11.554Z,91.94
2018-12-07T03:14:11.434Z,91.79
2018-12-07T03:15:11.451Z,91.83
2018-12-07T03:16:11.457Z,91.8
2018-12-07T03:17:11.574Z,91.77
2018-12-07T03:18:11.414Z,91.7
2018-12-07T03:19:11.407Z,91.78
2018-12-07T03:20:11.467Z,91.77
2018-12-07T03:21:11.446Z,91.73
2018-12-07T03:22:11.412Z,91.66
2018-12-07T03:23:11.429Z,91.57
2018-12-07T03:24:11.416Z,91.51
2018-12-07T03:25:11.514Z,91.43
2018-12-07T03:26:11.450Z,91.5
2018-12-07T03:27:11.623Z,91.46
2018-12-07T03:28:11.454Z,91.33
2018-12-07T03:29:11.433Z,91.26
2018-12-07T03:30:11.435Z,91.22
2018-12-07T03:31:11.516Z,91.27
2018-12-07T03:32:11.767Z,91.23
2018-12-07T03:33:11.593Z,91.12
2018-12-07T03:34:11.400Z,91.12
2018-12-07T03:35:11.442Z,90.99
2018-12-07T03:36:11.681Z,90.86
2018-12-07T03:37:11.393Z,90.95
2018-12-07T03:38:11.464Z,90.87
2018-12-07T03:39:11.373Z,90.88
2018-12-07T03:40:11.585Z,90.91
2018-12-07T03:41:11.685Z,90.76
2018-12-07T03:42:11.555Z,90.82
2018-12-07T03:43:11.472Z,90.73
2018-12-07T03:44:11.572Z,90.75
2018-12-07T03:45:11.569Z,90.79
2018-12-07T03:46:11.403Z,90.8
2018-12-07T03:47:11.426Z,90.8
2018-12-07T03:48:11.403Z,90.87
2018-12-07T03:49:11.419Z,90.82
2018-12-07T03:50:11.477Z,90.87
2018-12-07T03:51:11.593Z,90.9
2018-12-07T03:52:11.556Z,90.84
2018-12-07T03:53:11.453Z,90.86
2018-12-07T03:54:11.421Z,90.91
2018-12-07T03:55:11.418Z,90.84
2018-12-07T03:56:11.458Z,90.91
2018-12-07T03:57:11.760Z,90.87
2018-12-07T03:58:11.485Z,90.74
2018-12-07T03:59:11.442Z,90.68
2018-12-07T04:00:11.434Z,90.57
2018-12-07T04:01:11.526Z,90.65
2018-12-07T04:02:11.428Z,90.61
2018-12-07T04:03:11.474Z,90.59
2018-12-07T04:04:11.530Z,90.52
2018-12-07T04:05:11.443Z,90.53
2018-12-07T04:06:11.371Z,90.51
2018-12-07T04:07:11.487Z,90.5
2018-12-07T04:08:11.470Z,90.43
2018-12-07T04:09:11.581Z,90.37
2018-12-07T04:10:11.638Z,90.3
2018-12-07T04:11:11.469Z,90.28
2018-12-07T04:12:11.397Z,90.21
2018-12-07T04:13:11.387Z,90.07
2018-12-07T04:14:11.692Z,89.86
2018-12-07T04:15:11.426Z,89.8
2018-12-07T04:16:11.357Z,89.8
2018-12-07T04:17:11.383Z,89.72
2018-12-07T04:18:11.372Z,89.75
2018-12-07T04:19:11.414Z,89.67
2018-12-07T04:20:11.352Z,89.7
2018-12-07T04:21:11.333Z,89.68
2018-12-07T04:22:11.564Z,89.68
2018-12-07T04:23:11.530Z,89.65
2018-12-07T04:24:11.541Z,89.51
2018-12-07T04:25:11.345Z,89.5
2018-12-07T04:26:11.451Z,89.43
2018-12-07T04:27:11.521Z,89.48
2018-12-07T04:28:11.437Z,89.37
2018-12-07T04:29:12.182Z,89.38
2018-12-07T04:30:11.365Z,89.38
2018-12-07T04:31:11.370Z,89.43
2018-12-07T04:32:11.632Z,89.25
2018-12-07T04:33:11.437Z,89.07
2018-12-07T04:34:11.500Z,89.02
2018-12-07T04:35:11.452Z,88.89
2018-12-07T04:36:11.399Z,88.95
2018-12-07T04:37:11.532Z,89.05
2018-12-07T04:38:11.468Z,89
2018-12-07T04:39:11.497Z,88.99
2018-12-07T04:40:11.389Z,88.89
2018-12-07T04:41:11.473Z,88.93
2018-12-07T04:42:11.534Z,88.99
2018-12-07T04:43:11.811Z,89.03
2018-12-07T04:44:11.597Z,88.9
2018-12-07T04:45:11.532Z,88.6
2018-12-07T04:46:11.585Z,88.46
2018-12-07T04:47:11.503Z,88.52
2018-12-07T04:48:11.374Z,88.55
2018-12-07T04:49:11.415Z,88.61
2018-12-07T04:50:11.448Z,88.68
2018-12-07T04:51:11.440Z,88.4
2018-12-07T04:52:11.309Z,88.45
2018-12-07T04:53:11.316Z,88.48
2018-12-07T04:54:11.495Z,88.55
2018-12-07T04:55:11.355Z,88.53
2018-12-07T04:56:11.333Z,88.56
2018-12-07T04:57:11.346Z,88.65
2018-12-07T04:58:11.474Z,88.6
2018-12-07T04:59:11.619Z,88.63
2018-12-07T05:00:11.410Z,88.71
2018-12-07T05:01:11.330Z,88.71
2018-12-07T05:02:11.429Z,88.6
2018-12-07T05:03:11.442Z,88.41
2018-12-07T05:04:11.296Z,88.22
2018-12-07T05:05:11.459Z,88.37
2018-12-07T05:06:11.341Z,88.43
2018-12-07T05:07:11.352Z,88.47
2018-12-07T05:08:11.335Z,88.42
2018-12-07T05:09:11.489Z,88.29
2018-12-07T05:10:11.323Z,88.39
2018-12-07T05:11:11.347Z,88.45
2018-12-07T05:12:11.353Z,88.47
2018-12-07T05:13:11.279Z,88.5
2018-12-07T05:14:11.862Z,88.44
2018-12-07T05:15:11.315Z,88.39
2018-12-07T05:16:11.448Z,88.47
2018-12-07T05:17:11.437Z,88.47
2018-12-07T05:18:11.423Z,88.53
2018-12-07T05:19:11.846Z,88.53
2018-12-07T05:20:11.451Z,88.35
2018-12-07T05:21:11.451Z,88.24
2018-12-07T05:22:11.430Z,88.45
2018-12-07T05:23:11.517Z,88.6
2018-12-07T05:24:11.358Z,88.71
2018-12-07T05:25:11.342Z,88.76
2018-12-07T05:26:11.413Z,88.98
2018-12-07T05:27:11.326Z,89
2018-12-07T05:28:11.304Z,89.1
2018-12-07T05:29:11.318Z,89.22
2018-12-07T05:30:11.667Z,89.34
2018-12-07T05:31:12.137Z,89.47
2018-12-07T05:32:11.291Z,89.61
2018-12-07T05:33:11.295Z,89.52
2018-12-07T05:34:11.652Z,89.62
2018-12-07T05:35:11.620Z,89.56
2018-12-07T05:36:11.478Z,89.38
2018-12-07T05:37:11.671Z,89.33
2018-12-07T05:38:11.468Z,89.3
2018-12-07T05:39:12.094Z,89.3
2018-12-07T05:40:11.384Z,89.15
2018-12-07T05:41:11.445Z,88.88
2018-12-07T05:42:11.246Z,88.99
2018-12-07T05:43:11.590Z,89.15
2018-12-07T05:44:11.399Z,88.87
2018-12-07T05:45:11.491Z,89
2018-12-07T05:46:11.672Z,88.87
2018-12-07T05:47:11.338Z,89
2018-12-07T05:48:11.292Z,88.8
2018-12-07T05:49:12.097Z,88.81
2018-12-07T05:50:11.418Z,88.87
2018-12-07T05:51:11.290Z,89.01
2018-12-07T05:52:11.477Z,89.03
2018-12-07T05:53:11.438Z,89.01
2018-12-07T05:54:11.242Z,88.94
2018-12-07T05:55:11.251Z,89.04
2018-12-07T05:56:11.311Z,89.16
2018-12-07T05:57:11.317Z,89.15
2018-12-07T05:58:11.270Z,89.18
2018-12-07T05:59:11.377Z,89.14
2018-12-07T06:00:11.630Z,89.11
2018-12-07T06:01:11.258Z,89.2
2018-12-07T06:02:11.439Z,89.37
2018-12-07T06:03:11.307Z,89.35
2018-12-07T06:04:11.361Z,89.37
2018-12-07T06:05:11.402Z,89.46
2018-12-07T06:06:11.350Z,89.51
2018-12-07T06:07:11.389Z,89.68
2018-12-07T06:08:11.360Z,89.55
2018-12-07T06:09:11.417Z,89.33
2018-12-07T06:10:11.282Z,89.32
2018-12-07T06:11:11.376Z,89.25
2018-12-07T06:12:11.262Z,89.25
2018-12-07T06:13:11.254Z,88.94
2018-12-07T06:14:11.303Z,88.83
2018-12-07T06:15:11.694Z,88.85
2018-12-07T06:16:11.583Z,88.94
2018-12-07T06:17:11.497Z,88.73
2018-12-07T06:18:11.305Z,88.83
2018-12-07T06:19:11.530Z,88.98
2018-12-07T06:20:11.216Z,89.05
2018-12-07T06:21:11.359Z,89.1
2018-12-07T06:22:11.380Z,88.86
2018-12-07T06:23:11.185Z,88.94
2018-12-07T06:24:11.277Z,88.88
2018-12-07T06:25:11.351Z,88.83
2018-12-07T06:26:11.218Z,88.85
2018-12-07T06:27:11.198Z,88.73
2018-12-07T06:28:11.319Z,89.01
2018-12-07T06:29:11.553Z,88.9
2018-12-07T06:30:11.311Z,89.02
2018-12-07T06:31:12.320Z,88.95
2018-12-07T06:32:11.800Z,88.7
2018-12-07T06:33:11.206Z,88.82
2018-12-07T06:34:11.496Z,88.88
2018-12-07T06:35:11.233Z,88.99
2018-12-07T06:36:11.183Z,88.88
2018-12-07T06:37:11.191Z,88.96
2018-12-07T06:38:11.225Z,88.95
2018-12-07T06:39:11.417Z,88.91
2018-12-07T06:40:11.186Z,88.94
2018-12-07T06:41:11.192Z,88.89
2018-12-07T06:42:11.322Z,88.92
2018-12-07T06:43:11.497Z,88.65
2018-12-07T06:44:11.260Z,88.57
2018-12-07T06:45:11.216Z,88.54
2018-12-07T06:46:11.337Z,88.56
2018-12-07T06:47:11.334Z,88.5
2018-12-07T06:48:11.373Z,88.59
2018-12-07T06:49:11.384Z,88.56
2018-12-07T06:50:11.267Z,88.38
2018-12-07T06:51:11.398Z,88.23
2018-12-07T06:52:11.165Z,88.13
2018-12-07T06:53:11.307Z,88.19
2018-12-07T06:54:11.419Z,88.22
2018-12-07T06:55:11.176Z,88.33
2018-12-07T06:56:11.210Z,88.15
2018-12-07T06:57:11.142Z,87.97
2018-12-07T06:58:11.208Z,87.88
2018-12-07T06:59:11.257Z,87.84
2018-12-07T07:00:11.187Z,87.81
2018-12-07T07:01:11.356Z,87.32
2018-12-07T07:02:11.546Z,87.58
2018-12-07T07:03:11.270Z,87.56
2018-12-07T07:04:11.150Z,87.22
2018-12-07T07:05:11.386Z,87.25
2018-12-07T07:06:11.372Z,87.01
2018-12-07T07:07:11.349Z,86.88
2018-12-07T07:08:11.183Z,86.92
2018-12-07T07:09:11.273Z,86.9
2018-12-07T07:10:11.129Z,86.5
2018-12-07T07:11:11.306Z,86.61
2018-12-07T07:12:11.248Z,86.32
2018-12-07T07:13:11.338Z,86.44
2018-12-07T07:14:11.323Z,86.54
2018-12-07T07:15:11.163Z,86.63
2018-12-07T07:16:11.189Z,86.5
2018-12-07T07:17:11.550Z,86.61
2018-12-07T07:18:11.237Z,86.49
2018-12-07T07:19:11.175Z,86.47
2018-12-07T07:20:11.252Z,86.47
2018-12-07T07:21:11.958Z,86.22
2018-12-07T07:22:11.130Z,86.22
2018-12-07T07:23:11.138Z,86.17
2018-12-07T07:24:11.315Z,86.34
2018-12-07T07:25:11.221Z,85.94
2018-12-07T07:26:11.515Z,85.63
2018-12-07T07:27:11.146Z,85.68
2018-12-07T07:28:11.138Z,85.52
2018-12-07T07:29:11.322Z,85.67
2018-12-07T07:30:11.163Z,85.87
2018-12-07T07:31:11.976Z,85.82
2018-12-07T07:32:11.153Z,85.83
2018-12-07T07:33:11.225Z,85.73
2018-12-07T07:34:11.366Z,85.93
2018-12-07T07:35:11.302Z,86.05
2018-12-07T07:36:11.468Z,86.14
2018-12-07T07:37:11.198Z,85.8
2018-12-07T07:38:11.138Z,85.8
2018-12-07T07:39:11.250Z,85.84
2018-12-07T07:40:11.137Z,85.85
2018-12-07T07:41:11.300Z,86.09
2018-12-07T07:42:11.108Z,86.32
2018-12-07T07:43:11.179Z,86.38
2018-12-07T07:44:11.130Z,86.43
2018-12-07T07:45:11.199Z,86.39
2018-12-07T07:46:11.112Z,86.32
2018-12-07T07:47:11.135Z,86.47
2018-12-07T07:48:11.129Z,86.47
2018-12-07T07:49:11.671Z,86.52
2018-12-07T07:50:11.133Z,86.58
2018-12-07T07:51:11.284Z,86.43
2018-12-07T07:52:11.286Z,86.41
2018-12-07T07:53:11.395Z,86.3
2018-12-07T07:54:11.297Z,86.35
2018-12-07T07:55:11.266Z,86.41
2018-12-07T07:56:15.866Z,86.5
2018-12-07T07:57:11.118Z,86.34
2018-12-07T07:58:11.222Z,86.6
2018-12-07T07:59:11.088Z,86.7
2018-12-07T08:00:11.116Z,86.58
2018-12-07T08:01:11.419Z,86.54
2018-12-07T08:02:11.093Z,86.53
2018-12-07T08:03:11.106Z,86.47
2018-12-07T08:04:11.074Z,86.54
2018-12-07T08:05:11.102Z,86.67
2018-12-07T08:06:11.210Z,86.74
2018-12-07T08:07:11.241Z,86.7
2018-12-07T08:08:11.067Z,86.76
2018-12-07T08:09:11.126Z,86.72
2018-12-07T08:10:11.073Z,86.83
2018-12-07T08:11:11.143Z,86.71
2018-12-07T08:12:11.152Z,86.72
2018-12-07T08:13:11.106Z,86.68
2018-12-07T08:14:11.110Z,86.63
2018-12-07T08:15:11.116Z,86.57
2018-12-07T08:16:11.175Z,86.67
2018-12-07T08:17:11.080Z,86.5
2018-12-07T08:18:11.069Z,86.75
2018-12-07T08:19:11.059Z,86.61
2018-12-07T08:20:11.201Z,86.63
2018-12-07T08:21:11.108Z,86.66
2018-12-07T08:22:11.085Z,86.57
2018-12-07T08:23:15.274Z,86.45
2018-12-07T08:24:11.303Z,86.44
2018-12-07T08:25:11.136Z,86.17
2018-12-07T08:26:11.403Z,86.11
2018-12-07T08:27:11.194Z,85.87
2018-12-07T08:28:11.081Z,86.01
2018-12-07T08:29:11.166Z,86.17
2018-12-07T08:30:11.446Z,86.25
2018-12-07T08:31:11.933Z,86.07
2018-12-07T08:32:11.219Z,86.18
2018-12-07T08:33:11.089Z,86.33
2018-12-07T08:34:11.302Z,86.27
2018-12-07T08:35:11.909Z,86.21
2018-12-07T08:36:11.430Z,86.15
2018-12-07T08:37:11.429Z,86.2
2018-12-07T08:38:11.408Z,86.32
2018-12-07T08:39:11.039Z,86.31
2018-12-07T08:40:11.089Z,86.1
2018-12-07T08:41:11.189Z,86.13
2018-12-07T08:42:11.489Z,86.11
2018-12-07T08:43:11.186Z,86.03
2018-12-07T08:44:11.241Z,86.01
2018-12-07T08:45:11.055Z,85.85
2018-12-07T08:46:11.268Z,86.09
2018-12-07T08:47:11.362Z,85.96
2018-12-07T08:48:11.308Z,85.95
2018-12-07T08:49:11.169Z,85.63
2018-12-07T08:50:11.324Z,85.84
2018-12-07T08:51:11.047Z,85.74
2018-12-07T08:52:11.128Z,85.73
2018-12-07T08:53:11.508Z,85.62
2018-12-07T08:54:11.149Z,85.73
2018-12-07T08:55:11.083Z,85.85
2018-12-07T08:56:11.088Z,85.71
2018-12-07T08:57:11.148Z,85.48
2018-12-07T08:58:11.123Z,85.64
2018-12-07T08:59:11.327Z,85.76
2018-12-07T09:00:11.018Z,85.86
2018-12-07T09:01:11.177Z,85.8
2018-12-07T09:02:11.322Z,85.69
2018-12-07T09:03:11.249Z,85.7
2018-12-07T09:04:11.149Z,85.47
2018-12-07T09:05:11.156Z,85.6
2018-12-07T09:06:11.322Z,85.87
2018-12-07T09:07:11.104Z,85.92
2018-12-07T09:08:15.754Z,85.96
2018-12-07T09:09:11.185Z,85.83
2018-12-07T09:10:11.017Z,85.84
2018-12-07T09:11:11.009Z,85.89
2018-12-07T09:12:11.411Z,85.95
2018-12-07T09:13:11.317Z,85.93
2018-12-07T09:14:11.133Z,85.94
2018-12-07T09:15:11.094Z,86.01
2018-12-07T09:16:11.354Z,85.93
2018-12-07T09:17:11.092Z,85.66
2018-12-07T09:18:11.797Z,85.75
2018-12-07T09:19:11.029Z,85.74
2018-12-07T09:20:11.017Z,85.88
2018-12-07T09:21:11.118Z,85.83
2018-12-07T09:22:11.244Z,85.84
2018-12-07T09:23:11.290Z,85.87
2018-12-07T09:24:11.354Z,85.84
2018-12-07T09:25:11.193Z,85.97
2018-12-07T09:26:11.041Z,85.93
2018-12-07T09:27:11.002Z,85.94
2018-12-07T09:28:11.144Z,85.83
2018-12-07T09:29:11.487Z,85.68
2018-12-07T09:30:11.114Z,85.8
2018-12-07T09:31:11.200Z,85.53
2018-12-07T09:32:11.097Z,85.64
2018-12-07T09:33:11.080Z,85.66
2018-12-07T09:34:11.300Z,85.6
2018-12-07T09:35:11.127Z,85.61
2018-12-07T09:36:11.221Z,85.55
2018-12-07T09:37:11.234Z,85.54
2018-12-07T09:38:13.558Z,85.53
2018-12-07T09:39:11.232Z,85.37
2018-12-07T09:40:11.027Z,85.53
2018-12-07T09:41:11.020Z,85.44
2018-12-07T09:42:11.004Z,85.55
2018-12-07T09:43:11.037Z,85.27
2018-12-07T09:44:11.026Z,85.36
2018-12-07T09:45:11.105Z,85.45
2018-12-07T09:46:11.051Z,85.45
2018-12-07T09:47:11.161Z,85.43
2018-12-07T09:48:11.053Z,85.54
2018-12-07T09:49:11.058Z,85.49
2018-12-07T09:50:10.972Z,85.41
2018-12-07T09:51:11.249Z,85.39
2018-12-07T09:52:11.013Z,85.5
2018-12-07T09:53:11.047Z,85.58
2018-12-07T09:54:10.995Z,85.68
2018-12-07T09:55:10.997Z,85.75
2018-12-07T09:56:11.133Z,85.91
2018-12-07T09:57:11.338Z,86
2018-12-07T09:58:10.994Z,85.92
2018-12-07T09:59:10.978Z,86.04
2018-12-07T10:00:11.308Z,86.08
2018-12-07T10:01:11.093Z,85.99
2018-12-07T10:02:11.328Z,85.87
2018-12-07T10:03:11.322Z,85.84
2018-12-07T10:04:11.090Z,85.6
2018-12-07T10:05:11.350Z,85.75
2018-12-07T10:06:11.166Z,85.6
2018-12-07T10:07:11.155Z,85.68
2018-12-07T10:08:11.021Z,85.69
2018-12-07T10:09:11.761Z,85.69
2018-12-07T10:10:11.064Z,85.75
2018-12-07T10:11:11.064Z,85.6
2018-12-07T10:12:11.119Z,85.56
2018-12-07T10:13:11.077Z,85.71
2018-12-07T10:14:11.166Z,85.7
2018-12-07T10:15:11.029Z,85.58
2018-12-07T10:16:11.146Z,85.55
2018-12-07T10:17:11.161Z,85.71
2018-12-07T10:18:11.131Z,85.75
2018-12-07T10:19:11.114Z,85.69
2018-12-07T10:20:11.164Z,85.38
2018-12-07T10:21:11.129Z,85.28
2018-12-07T10:22:11.419Z,85.2
2018-12-07T10:23:11.034Z,85.04
2018-12-07T10:24:10.940Z,85.2
2018-12-07T10:25:11.012Z,85.35
2018-12-07T10:26:11.086Z,85.35
2018-12-07T10:27:11.006Z,85.48
2018-12-07T10:28:11.117Z,85.39
2018-12-07T10:29:11.034Z,85.43
2018-12-07T10:30:11.054Z,85.46
2018-12-07T10:31:11.179Z,85.17
2018-12-07T10:32:10.927Z,85.17
2018-12-07T10:33:11.136Z,85.19
2018-12-07T10:34:11.057Z,85.1
2018-12-07T10:35:10.976Z,84.98
2018-12-07T10:36:11.070Z,85.09
2018-12-07T10:37:11.171Z,85.1
2018-12-07T10:38:11.075Z,85.18
2018-12-07T10:39:11.003Z,85.23
2018-12-07T10:40:11.088Z,85.26
2018-12-07T10:41:11.060Z,85.24
2018-12-07T10:42:12.608Z,85.2
2018-12-07T10:43:11.220Z,85.18
2018-12-07T10:44:10.927Z,85.04
2018-12-07T10:45:11.056Z,84.93
2018-12-07T10:46:11.030Z,84.69
2018-12-07T10:47:11.192Z,84.71
2018-12-07T10:48:11.027Z,84.66
2018-12-07T10:49:11.292Z,84.77
2018-12-07T10:50:10.906Z,84.63
2018-12-07T10:51:10.945Z,84.79
2018-12-07T10:52:11.084Z,84.87
2018-12-07T10:53:11.001Z,84.9
2018-12-07T10:54:11.182Z,84.9
2018-12-07T10:55:11.091Z,84.78
2018-12-07T10:56:11.225Z,84.61
2018-12-07T10:57:11.020Z,84.55
2018-12-07T10:58:11.163Z,84.53
2018-12-07T10:59:10.879Z,84.81
2018-12-07T11:00:10.889Z,84.98
2018-12-07T11:01:10.919Z,84.99
2018-12-07T11:02:11.112Z,84.95
2018-12-07T11:03:10.907Z,84.81
2018-12-07T11:04:10.878Z,84.74
2018-12-07T11:05:11.048Z,84.94
2018-12-07T11:06:11.130Z,85.09
2018-12-07T11:07:10.986Z,84.99
2018-12-07T11:08:11.200Z,85.07
2018-12-07T11:09:10.949Z,85.01
2018-12-07T11:10:10.945Z,85.23
2018-12-07T11:11:10.947Z,84.87
2018-12-07T11:12:10.897Z,85.04
2018-12-07T11:13:11.143Z,85.19
2018-12-07T11:14:11.037Z,85.26
2018-12-07T11:15:11.107Z,85.31
2018-12-07T11:16:11.113Z,85.4
2018-12-07T11:17:10.906Z,85.49
2018-12-07T11:18:10.906Z,85.36
2018-12-07T11:19:10.968Z,85.05
2018-12-07T11:20:10.918Z,85.12
2018-12-07T11:21:11.155Z,84.66
2018-12-07T11:22:11.004Z,84.55
2018-12-07T11:23:11.087Z,84.73
2018-12-07T11:24:10.843Z,84.71
2018-12-07T11:25:10.905Z,84.73
2018-12-07T11:26:10.853Z,84.93
2018-12-07T11:27:10.866Z,85.15
2018-12-07T11:28:10.834Z,85.37
2018-12-07T11:29:10.872Z,85.59
2018-12-07T11:30:10.848Z,85.9
2018-12-07T11:31:10.864Z,86.06
2018-12-07T11:32:10.976Z,86.58
2018-12-07T11:33:10.821Z,86.12
2018-12-07T11:34:10.846Z,86.61
2018-12-07T11:35:10.829Z,87.31
2018-12-07T11:36:11.136Z,86.83
2018-12-07T11:37:10.919Z,86.15
2018-12-07T11:38:11.096Z,86.81
2018-12-07T11:39:12.883Z,86.82
2018-12-07T11:40:11.196Z,86.91
2018-12-07T11:41:11.079Z,86.57
2018-12-07T11:42:11.146Z,86.06
2018-12-07T11:43:11.029Z,86.09
2018-12-07T11:44:10.970Z,85.88
2018-12-07T11:45:10.927Z,86.12
2018-12-07T11:46:10.868Z,86.1
2018-12-07T11:47:11.025Z,86.29
2018-12-07T11:48:11.026Z,86.11
2018-12-07T11:49:11.085Z,86.31
2018-12-07T11:50:10.960Z,86
2018-12-07T11:51:10.870Z,86.22
2018-12-07T11:52:11.012Z,85.96
2018-12-07T11:53:11.122Z,85.8
2018-12-07T11:54:11.273Z,85.8
2018-12-07T11:55:11.026Z,85.65
2018-12-07T11:56:11.050Z,85.98
2018-12-07T11:57:11.048Z,86.28
2018-12-07T11:58:11.201Z,86.36
2018-12-07T11:59:11.330Z,86.16
2018-12-07T12:00:10.920Z,86.43
2018-12-07T12:01:10.993Z,86.23
2018-12-07T12:02:11.273Z,85.86
2018-12-07T12:03:11.080Z,86.03
2018-12-07T12:04:11.193Z,86.25
2018-12-07T12:05:11.148Z,85.97
2018-12-07T12:06:11.026Z,86.09
2018-12-07T12:07:10.949Z,85.77
2018-12-07T12:08:10.987Z,85.56
2018-12-07T12:09:10.965Z,85.68
2018-12-07T12:10:11.080Z,85.25
2018-12-07T12:11:11.091Z,85.5
2018-12-07T12:12:11.183Z,85.61
2018-12-07T12:13:11.104Z,85.81
2018-12-07T12:14:10.853Z,85.95
2018-12-07T12:15:10.860Z,85.71
2018-12-07T12:16:10.912Z,85.81
2018-12-07T12:17:11.019Z,85.72
2018-12-07T12:18:10.831Z,85.75
2018-12-07T12:19:11.030Z,85.85
2018-12-07T12:20:10.917Z,86.01
2018-12-07T12:21:11.310Z,85.93
2018-12-07T12:22:10.983Z,85.92
2018-12-07T12:23:11.037Z,86.13
2018-12-07T12:24:10.928Z,86.18
2018-12-07T12:25:10.801Z,86.1
2018-12-07T12:26:11.180Z,86.26
2018-12-07T12:27:10.801Z,86.32
2018-12-07T12:28:10.795Z,86.5
2018-12-07T12:29:10.770Z,86.67
2018-12-07T12:30:10.933Z,86.72
2018-12-07T12:31:10.835Z,86.83
2018-12-07T12:32:10.791Z,86.97
2018-12-07T12:33:10.787Z,87.12
2018-12-07T12:34:10.855Z,87.2
2018-12-07T12:35:10.974Z,87.28
2018-12-07T12:36:17.511Z,87.52
2018-12-07T12:37:10.993Z,87.23
2018-12-07T12:38:10.950Z,87.25
2018-12-07T12:39:10.788Z,87.22
2018-12-07T12:40:10.773Z,87.31
2018-12-07T12:41:10.770Z,87.37
2018-12-07T12:42:10.913Z,87.53
2018-12-07T12:43:10.920Z,87.51
2018-12-07T12:44:10.922Z,87.35
2018-12-07T12:45:10.730Z,87.18
2018-12-07T12:46:11.550Z,87.1
2018-12-07T12:47:10.957Z,86.79
2018-12-07T12:48:11.074Z,86.76
2018-12-07T12:49:10.743Z,86.61
2018-12-07T12:50:10.790Z,86.74
2018-12-07T12:51:10.956Z,86.78
2018-12-07T12:52:10.740Z,86.3
2018-12-07T12:53:10.777Z,86.52
2018-12-07T12:54:10.720Z,86.51
2018-12-07T12:55:10.780Z,86.65